sensor_id;sensor_type;location;lat;lon;timestamp;temperature;humidity
10129;DHT22;5104;50.720;7.044;2023-02-14T00:01:06;3.60;99.90
10129;DHT22;5104;50.720;7.044;2023-02-14T00:03:35;3.60;99.90
10129;DHT22;5104;50.720;7.044;2023-02-14T00:06:06;3.60;99.90
10129;DHT22;5104;50.720;7.044;2023-02-14T00:08:33;3.50;99.90
10129;DHT22;5104;50.720;7.044;2023-02-14T00:11:01;3.50;99.90
10129;DHT22;5104;50.720;7.044;2023-02-14T00:13:28;3.40;99.90
10129;DHT22;5104;50.720;7.044;2023-02-14T00:15:55;3.40;99.90
10129;DHT22;5104;50.720;7.044;2023-02-14T00:18:21;3.30;99.90
10129;DHT22;5104;50.720;7.044;2023-02-14T00:21:10;3.30;99.90
10129;DHT22;5104;50.720;7.044;2023-02-14T00:23:37;3.20;99.90
10129;DHT22;5104;50.720;7.044;2023-02-14T00:26:04;3.30;99.90
10129;DHT22;5104;50.720;7.044;2023-02-14T00:28:31;3.20;99.90
10129;DHT22;5104;50.720;7.044;2023-02-14T00:31:00;3.10;99.90
10129;DHT22;5104;50.720;7.044;2023-02-14T00:33:27;3.20;99.90
10129;DHT22;5104;50.720;7.044;2023-02-14T00:35:54;3.00;99.90
10129;DHT22;5104;50.720;7.044;2023-02-14T00:38:22;2.90;99.90
10129;DHT22;5104;50.720;7.044;2023-02-14T00:40:49;2.90;99.90
10129;DHT22;5104;50.720;7.044;2023-02-14T00:43:16;2.80;99.90
10129;DHT22;5104;50.720;7.044;2023-02-14T00:45:43;2.90;99.90
10129;DHT22;5104;50.720;7.044;2023-02-14T00:48:10;2.80;99.90
10129;DHT22;5104;50.720;7.044;2023-02-14T00:50:37;2.80;99.90
10129;DHT22;5104;50.720;7.044;2023-02-14T00:53:04;2.80;99.90
10129;DHT22;5104;50.720;7.044;2023-02-14T00:55:33;2.80;99.90
10129;DHT22;5104;50.720;7.044;2023-02-14T00:58:00;2.70;99.90
10129;DHT22;5104;50.720;7.044;2023-02-14T01:00:27;2.60;99.90
10129;DHT22;5104;50.720;7.044;2023-02-14T01:02:54;2.50;99.90
10129;DHT22;5104;50.720;7.044;2023-02-14T01:05:21;2.60;99.90
10129;DHT22;5104;50.720;7.044;2023-02-14T01:07:48;2.60;99.90
10129;DHT22;5104;50.720;7.044;2023-02-14T01:10:15;2.60;99.90
10129;DHT22;5104;50.720;7.044;2023-02-14T01:12:44;2.70;99.90
10129;DHT22;5104;50.720;7.044;2023-02-14T01:15:11;2.70;99.90
10129;DHT22;5104;50.720;7.044;2023-02-14T01:17:37;2.70;99.90
10129;DHT22;5104;50.720;7.044;2023-02-14T01:20:06;2.70;99.90
10129;DHT22;5104;50.720;7.044;2023-02-14T01:22:34;2.60;99.90
10129;DHT22;5104;50.720;7.044;2023-02-14T01:25:02;2.60;99.90
10129;DHT22;5104;50.720;7.044;2023-02-14T01:27:29;2.50;99.90
10129;DHT22;5104;50.720;7.044;2023-02-14T01:29:57;2.60;99.90
10129;DHT22;5104;50.720;7.044;2023-02-14T01:32:24;2.60;99.90
10129;DHT22;5104;50.720;7.044;2023-02-14T01:34:51;2.50;99.90
10129;DHT22;5104;50.720;7.044;2023-02-14T01:37:18;2.50;99.90
10129;DHT22;5104;50.720;7.044;2023-02-14T01:39:45;2.40;99.90
10129;DHT22;5104;50.720;7.044;2023-02-14T01:42:12;2.40;99.90
10129;DHT22;5104;50.720;7.044;2023-02-14T01:44:58;2.40;99.90
10129;DHT22;5104;50.720;7.044;2023-02-14T01:47:27;2.40;99.90
10129;DHT22;5104;50.720;7.044;2023-02-14T01:49:57;2.40;99.90
10129;DHT22;5104;50.720;7.044;2023-02-14T01:52:28;2.50;99.90
10129;DHT22;5104;50.720;7.044;2023-02-14T01:55:01;2.40;99.90
10129;DHT22;5104;50.720;7.044;2023-02-14T01:57:33;2.40;99.90
10129;DHT22;5104;50.720;7.044;2023-02-14T02:00:05;2.40;99.90
10129;DHT22;5104;50.720;7.044;2023-02-14T02:02:47;2.40;99.90
10129;DHT22;5104;50.720;7.044;2023-02-14T02:05:15;2.40;99.90
10129;DHT22;5104;50.720;7.044;2023-02-14T02:07:48;2.40;99.90
10129;DHT22;5104;50.720;7.044;2023-02-14T02:10:16;2.40;99.90
10129;DHT22;5104;50.720;7.044;2023-02-14T02:12:43;2.40;99.90
10129;DHT22;5104;50.720;7.044;2023-02-14T02:15:12;2.30;99.90
10129;DHT22;5104;50.720;7.044;2023-02-14T02:17:46;2.30;99.90
10129;DHT22;5104;50.720;7.044;2023-02-14T02:20:50;2.30;99.90
10129;DHT22;5104;50.720;7.044;2023-02-14T02:23:47;2.30;99.90
10129;DHT22;5104;50.720;7.044;2023-02-14T02:33:02;2.20;99.90
10129;DHT22;5104;50.720;7.044;2023-02-14T02:35:48;2.20;99.90
10129;DHT22;5104;50.720;7.044;2023-02-14T02:38:30;2.20;99.90
10129;DHT22;5104;50.720;7.044;2023-02-14T02:41:03;2.20;99.90
10129;DHT22;5104;50.720;7.044;2023-02-14T02:43:42;2.10;99.90
10129;DHT22;5104;50.720;7.044;2023-02-14T02:46:18;2.10;99.90
10129;DHT22;5104;50.720;7.044;2023-02-14T02:49:12;2.00;99.90
10129;DHT22;5104;50.720;7.044;2023-02-14T02:52:03;2.00;99.90
10129;DHT22;5104;50.720;7.044;2023-02-14T02:54:54;2.00;99.90
10129;DHT22;5104;50.720;7.044;2023-02-14T02:57:27;2.00;99.90
10129;DHT22;5104;50.720;7.044;2023-02-14T02:59:56;2.00;99.90
10129;DHT22;5104;50.720;7.044;2023-02-14T03:02:28;1.90;99.90
10129;DHT22;5104;50.720;7.044;2023-02-14T03:04:59;2.00;99.90
10129;DHT22;5104;50.720;7.044;2023-02-14T03:07:34;2.00;99.90
10129;DHT22;5104;50.720;7.044;2023-02-14T03:10:06;2.00;99.90
10129;DHT22;5104;50.720;7.044;2023-02-14T03:16:14;2.00;99.90
10129;DHT22;5104;50.720;7.044;2023-02-14T03:21:55;1.90;99.90
10129;DHT22;5104;50.720;7.044;2023-02-14T03:24:28;1.90;99.90
10129;DHT22;5104;50.720;7.044;2023-02-14T03:27:01;2.00;99.90
10129;DHT22;5104;50.720;7.044;2023-02-14T03:29:39;2.00;99.90
10129;DHT22;5104;50.720;7.044;2023-02-14T03:32:12;2.00;99.90
10129;DHT22;5104;50.720;7.044;2023-02-14T03:34:47;2.00;99.90
10129;DHT22;5104;50.720;7.044;2023-02-14T03:37:19;2.00;99.90
10129;DHT22;5104;50.720;7.044;2023-02-14T03:39:56;1.90;99.90
10129;DHT22;5104;50.720;7.044;2023-02-14T03:42:27;1.90;99.90
10129;DHT22;5104;50.720;7.044;2023-02-14T03:44:57;1.90;99.90
10129;DHT22;5104;50.720;7.044;2023-02-14T03:47:30;1.90;99.90
10129;DHT22;5104;50.720;7.044;2023-02-14T03:50:03;1.80;99.90
10129;DHT22;5104;50.720;7.044;2023-02-14T03:52:33;1.80;99.90
10129;DHT22;5104;50.720;7.044;2023-02-14T03:55:05;1.80;99.90
10129;DHT22;5104;50.720;7.044;2023-02-14T03:57:37;1.90;99.90
10129;DHT22;5104;50.720;7.044;2023-02-14T04:00:09;1.90;99.90
10129;DHT22;5104;50.720;7.044;2023-02-14T04:02:38;1.80;99.90
10129;DHT22;5104;50.720;7.044;2023-02-14T04:05:12;1.80;99.90
10129;DHT22;5104;50.720;7.044;2023-02-14T04:07:45;1.90;99.90
10129;DHT22;5104;50.720;7.044;2023-02-14T04:10:15;2.00;99.90
10129;DHT22;5104;50.720;7.044;2023-02-14T04:12:42;2.10;99.90
10129;DHT22;5104;50.720;7.044;2023-02-14T04:15:10;2.10;99.90
10129;DHT22;5104;50.720;7.044;2023-02-14T04:17:37;2.10;99.90
10129;DHT22;5104;50.720;7.044;2023-02-14T04:20:22;2.20;99.90
10129;DHT22;5104;50.720;7.044;2023-02-14T04:22:50;2.30;99.90
10129;DHT22;5104;50.720;7.044;2023-02-14T04:25:19;2.30;99.90
10129;DHT22;5104;50.720;7.044;2023-02-14T04:27:46;2.40;99.90
10129;DHT22;5104;50.720;7.044;2023-02-14T04:30:13;2.40;99.90
10129;DHT22;5104;50.720;7.044;2023-02-14T04:32:42;2.40;99.90
10129;DHT22;5104;50.720;7.044;2023-02-14T04:35:10;2.40;99.90
10129;DHT22;5104;50.720;7.044;2023-02-14T04:37:37;2.50;99.90
10129;DHT22;5104;50.720;7.044;2023-02-14T04:40:06;2.60;99.90
10129;DHT22;5104;50.720;7.044;2023-02-14T04:42:34;2.50;99.90
10129;DHT22;5104;50.720;7.044;2023-02-14T04:45:01;2.50;99.90
10129;DHT22;5104;50.720;7.044;2023-02-14T04:47:28;2.50;99.90
10129;DHT22;5104;50.720;7.044;2023-02-14T04:49:56;2.60;99.90
10129;DHT22;5104;50.720;7.044;2023-02-14T04:52:23;2.60;99.90
10129;DHT22;5104;50.720;7.044;2023-02-14T04:54:50;2.60;99.90
10129;DHT22;5104;50.720;7.044;2023-02-14T04:57:17;2.60;99.90
10129;DHT22;5104;50.720;7.044;2023-02-14T04:59:45;2.50;99.90
10129;DHT22;5104;50.720;7.044;2023-02-14T05:02:12;2.50;99.90
10129;DHT22;5104;50.720;7.044;2023-02-14T05:04:39;2.70;99.90
10129;DHT22;5104;50.720;7.044;2023-02-14T05:07:06;2.60;99.90
10129;DHT22;5104;50.720;7.044;2023-02-14T05:09:33;2.60;99.90
10129;DHT22;5104;50.720;7.044;2023-02-14T05:12:00;2.60;99.90
10129;DHT22;5104;50.720;7.044;2023-02-14T05:14:27;2.50;99.90
10129;DHT22;5104;50.720;7.044;2023-02-14T05:16:55;2.60;99.90
10129;DHT22;5104;50.720;7.044;2023-02-14T05:19:22;2.60;99.90
10129;DHT22;5104;50.720;7.044;2023-02-14T05:21:49;2.60;99.90
10129;DHT22;5104;50.720;7.044;2023-02-14T05:24:17;2.70;99.90
10129;DHT22;5104;50.720;7.044;2023-02-14T05:26:44;2.70;99.90
10129;DHT22;5104;50.720;7.044;2023-02-14T05:29:11;2.70;99.90
10129;DHT22;5104;50.720;7.044;2023-02-14T05:31:38;2.80;99.90
10129;DHT22;5104;50.720;7.044;2023-02-14T05:34:06;2.70;99.90
10129;DHT22;5104;50.720;7.044;2023-02-14T05:36:33;2.80;99.90
10129;DHT22;5104;50.720;7.044;2023-02-14T05:39:00;2.80;99.90
10129;DHT22;5104;50.720;7.044;2023-02-14T05:41:27;2.80;99.90
10129;DHT22;5104;50.720;7.044;2023-02-14T05:43:53;2.80;99.90
10129;DHT22;5104;50.720;7.044;2023-02-14T05:46:20;2.80;99.90
10129;DHT22;5104;50.720;7.044;2023-02-14T05:48:47;2.80;99.90
10129;DHT22;5104;50.720;7.044;2023-02-14T05:51:15;2.90;99.90
10129;DHT22;5104;50.720;7.044;2023-02-14T05:53:42;2.90;99.90
10129;DHT22;5104;50.720;7.044;2023-02-14T05:56:09;2.90;99.90
10129;DHT22;5104;50.720;7.044;2023-02-14T05:58:36;2.90;99.90
10129;DHT22;5104;50.720;7.044;2023-02-14T06:01:03;2.90;99.90
10129;DHT22;5104;50.720;7.044;2023-02-14T06:03:30;2.90;99.90
10129;DHT22;5104;50.720;7.044;2023-02-14T06:05:57;2.90;99.90
10129;DHT22;5104;50.720;7.044;2023-02-14T06:08:25;2.90;99.90
10129;DHT22;5104;50.720;7.044;2023-02-14T06:10:52;2.90;99.90
10129;DHT22;5104;50.720;7.044;2023-02-14T06:13:19;2.90;99.90
10129;DHT22;5104;50.720;7.044;2023-02-14T06:15:46;2.90;99.90
10129;DHT22;5104;50.720;7.044;2023-02-14T06:18:13;2.90;99.90
10129;DHT22;5104;50.720;7.044;2023-02-14T06:20:39;2.80;99.90
10129;DHT22;5104;50.720;7.044;2023-02-14T06:23:06;2.70;99.90
10129;DHT22;5104;50.720;7.044;2023-02-14T06:25:35;2.70;99.90
10129;DHT22;5104;50.720;7.044;2023-02-14T06:28:01;2.70;99.90
10129;DHT22;5104;50.720;7.044;2023-02-14T06:30:28;2.70;99.90
10129;DHT22;5104;50.720;7.044;2023-02-14T06:32:55;2.70;99.90
10129;DHT22;5104;50.720;7.044;2023-02-14T06:35:22;2.60;99.90
10129;DHT22;5104;50.720;7.044;2023-02-14T06:37:49;2.60;99.90
10129;DHT22;5104;50.720;7.044;2023-02-14T06:40:16;2.60;99.90
10129;DHT22;5104;50.720;7.044;2023-02-14T06:42:45;2.50;99.90
10129;DHT22;5104;50.720;7.044;2023-02-14T06:45:12;2.50;99.90
10129;DHT22;5104;50.720;7.044;2023-02-14T06:47:39;2.50;99.90
10129;DHT22;5104;50.720;7.044;2023-02-14T06:50:07;2.40;99.90
10129;DHT22;5104;50.720;7.044;2023-02-14T06:52:36;2.40;99.90
10129;DHT22;5104;50.720;7.044;2023-02-14T06:55:03;2.40;99.90
10129;DHT22;5104;50.720;7.044;2023-02-14T06:57:30;2.40;99.90
10129;DHT22;5104;50.720;7.044;2023-02-14T06:59:58;2.40;99.90
10129;DHT22;5104;50.720;7.044;2023-02-14T07:02:25;2.50;99.90
10129;DHT22;5104;50.720;7.044;2023-02-14T07:04:52;2.50;99.90
10129;DHT22;5104;50.720;7.044;2023-02-14T07:07:19;2.60;99.90
10129;DHT22;5104;50.720;7.044;2023-02-14T07:09:46;2.60;99.90
10129;DHT22;5104;50.720;7.044;2023-02-14T07:12:12;2.60;99.90
10129;DHT22;5104;50.720;7.044;2023-02-14T07:14:39;2.70;99.90
10129;DHT22;5104;50.720;7.044;2023-02-14T07:17:08;2.70;99.90
10129;DHT22;5104;50.720;7.044;2023-02-14T07:19:34;2.80;99.90
10129;DHT22;5104;50.720;7.044;2023-02-14T07:22:01;2.80;99.90
10129;DHT22;5104;50.720;7.044;2023-02-14T07:24:28;2.80;99.90
10129;DHT22;5104;50.720;7.044;2023-02-14T07:26:55;2.90;99.90
10129;DHT22;5104;50.720;7.044;2023-02-14T07:29:22;3.00;99.90
10129;DHT22;5104;50.720;7.044;2023-02-14T07:31:49;3.00;99.90
10129;DHT22;5104;50.720;7.044;2023-02-14T07:34:21;3.20;99.90
10129;DHT22;5104;50.720;7.044;2023-02-14T07:36:48;3.30;99.90
10129;DHT22;5104;50.720;7.044;2023-02-14T07:39:14;3.30;99.90
10129;DHT22;5104;50.720;7.044;2023-02-14T07:41:41;3.40;99.90
10129;DHT22;5104;50.720;7.044;2023-02-14T07:44:09;3.40;99.90
10129;DHT22;5104;50.720;7.044;2023-02-14T07:46:36;3.50;99.90
10129;DHT22;5104;50.720;7.044;2023-02-14T07:49:03;3.50;99.90
10129;DHT22;5104;50.720;7.044;2023-02-14T07:51:31;3.60;99.90
10129;DHT22;5104;50.720;7.044;2023-02-14T07:53:58;3.70;99.90
10129;DHT22;5104;50.720;7.044;2023-02-14T07:56:25;3.80;99.90
10129;DHT22;5104;50.720;7.044;2023-02-14T07:58:52;3.80;99.90
10129;DHT22;5104;50.720;7.044;2023-02-14T08:01:19;3.90;99.90
10129;DHT22;5104;50.720;7.044;2023-02-14T08:03:46;4.00;99.90
10129;DHT22;5104;50.720;7.044;2023-02-14T08:06:14;4.10;99.90
10129;DHT22;5104;50.720;7.044;2023-02-14T08:08:43;4.10;99.90
10129;DHT22;5104;50.720;7.044;2023-02-14T08:11:10;4.20;99.90
10129;DHT22;5104;50.720;7.044;2023-02-14T08:13:37;4.30;99.90
10129;DHT22;5104;50.720;7.044;2023-02-14T08:16:04;4.40;99.90
10129;DHT22;5104;50.720;7.044;2023-02-14T08:18:33;4.50;99.90
10129;DHT22;5104;50.720;7.044;2023-02-14T08:21:01;4.60;99.90
10129;DHT22;5104;50.720;7.044;2023-02-14T08:23:28;4.80;99.90
10129;DHT22;5104;50.720;7.044;2023-02-14T08:25:56;4.90;99.90
10129;DHT22;5104;50.720;7.044;2023-02-14T08:28:24;5.00;99.90
10129;DHT22;5104;50.720;7.044;2023-02-14T08:30:51;5.10;99.90
10129;DHT22;5104;50.720;7.044;2023-02-14T08:33:19;5.30;99.90
10129;DHT22;5104;50.720;7.044;2023-02-14T08:35:47;5.40;99.90
10129;DHT22;5104;50.720;7.044;2023-02-14T08:38:14;5.50;99.90
10129;DHT22;5104;50.720;7.044;2023-02-14T08:40:41;5.60;99.90
10129;DHT22;5104;50.720;7.044;2023-02-14T08:43:09;5.70;99.90
10129;DHT22;5104;50.720;7.044;2023-02-14T08:45:37;5.80;99.90
10129;DHT22;5104;50.720;7.044;2023-02-14T08:48:05;5.80;99.90
10129;DHT22;5104;50.720;7.044;2023-02-14T08:50:33;5.90;99.90
10129;DHT22;5104;50.720;7.044;2023-02-14T08:53:00;6.00;99.90
10129;DHT22;5104;50.720;7.044;2023-02-14T08:55:27;6.10;99.90
10129;DHT22;5104;50.720;7.044;2023-02-14T08:57:54;6.10;99.90
10129;DHT22;5104;50.720;7.044;2023-02-14T09:00:24;6.20;99.90
10129;DHT22;5104;50.720;7.044;2023-02-14T09:02:51;6.30;99.90
10129;DHT22;5104;50.720;7.044;2023-02-14T09:05:19;6.40;99.90
10129;DHT22;5104;50.720;7.044;2023-02-14T09:07:48;6.50;99.90
10129;DHT22;5104;50.720;7.044;2023-02-14T09:10:15;6.50;99.90
10129;DHT22;5104;50.720;7.044;2023-02-14T09:12:43;6.60;99.90
10129;DHT22;5104;50.720;7.044;2023-02-14T09:15:13;6.60;99.90
10129;DHT22;5104;50.720;7.044;2023-02-14T09:17:41;6.70;99.90
10129;DHT22;5104;50.720;7.044;2023-02-14T09:20:12;6.70;99.90
10129;DHT22;5104;50.720;7.044;2023-02-14T09:22:39;6.70;99.90
10129;DHT22;5104;50.720;7.044;2023-02-14T09:25:06;6.70;99.90
10129;DHT22;5104;50.720;7.044;2023-02-14T09:27:33;6.80;99.90
10129;DHT22;5104;50.720;7.044;2023-02-14T09:30:00;6.80;99.90
10129;DHT22;5104;50.720;7.044;2023-02-14T09:32:27;6.90;99.90
10129;DHT22;5104;50.720;7.044;2023-02-14T09:34:56;7.00;99.90
10129;DHT22;5104;50.720;7.044;2023-02-14T09:37:23;7.10;99.90
10129;DHT22;5104;50.720;7.044;2023-02-14T09:39:52;7.30;99.90
10129;DHT22;5104;50.720;7.044;2023-02-14T09:45:18;7.60;1.00
10129;DHT22;5104;50.720;7.044;2023-02-14T09:47:48;7.60;99.90
10129;DHT22;5104;50.720;7.044;2023-02-14T09:50:23;7.70;1.00
10129;DHT22;5104;50.720;7.044;2023-02-14T09:52:54;7.50;1.00
10129;DHT22;5104;50.720;7.044;2023-02-14T09:55:23;7.50;1.00
10129;DHT22;5104;50.720;7.044;2023-02-14T09:58:02;7.50;1.00
10129;DHT22;5104;50.720;7.044;2023-02-14T10:00:35;7.60;99.90
10129;DHT22;5104;50.720;7.044;2023-02-14T10:03:39;7.70;16.40
10129;DHT22;5104;50.720;7.044;2023-02-14T10:06:22;7.80;99.90
10129;DHT22;5104;50.720;7.044;2023-02-14T10:09:02;7.90;99.90
10129;DHT22;5104;50.720;7.044;2023-02-14T10:11:33;7.90;57.30
10129;DHT22;5104;50.720;7.044;2023-02-14T10:14:04;7.90;99.90
10129;DHT22;5104;50.720;7.044;2023-02-14T10:16:38;7.90;1.00
10129;DHT22;5104;50.720;7.044;2023-02-14T10:19:15;8.00;1.00
10129;DHT22;5104;50.720;7.044;2023-02-14T10:21:50;8.00;99.90
10129;DHT22;5104;50.720;7.044;2023-02-14T10:24:24;7.90;1.00
10129;DHT22;5104;50.720;7.044;2023-02-14T10:26:56;8.00;99.90
10129;DHT22;5104;50.720;7.044;2023-02-14T10:29:26;8.10;1.00
10129;DHT22;5104;50.720;7.044;2023-02-14T10:31:57;8.10;1.00
10129;DHT22;5104;50.720;7.044;2023-02-14T10:34:32;8.20;99.90
10129;DHT22;5104;50.720;7.044;2023-02-14T10:37:17;8.30;1.00
10129;DHT22;5104;50.720;7.044;2023-02-14T10:43:08;8.60;1.00
10129;DHT22;5104;50.720;7.044;2023-02-14T10:45:44;8.70;71.70
10129;DHT22;5104;50.720;7.044;2023-02-14T10:48:19;8.90;1.00
10129;DHT22;5104;50.720;7.044;2023-02-14T10:50:57;8.90;1.00
10129;DHT22;5104;50.720;7.044;2023-02-14T10:53:34;8.90;99.90
10129;DHT22;5104;50.720;7.044;2023-02-14T10:56:04;8.80;1.00
10129;DHT22;5104;50.720;7.044;2023-02-14T10:58:35;9.00;99.90
10129;DHT22;5104;50.720;7.044;2023-02-14T11:01:07;8.90;99.90
10129;DHT22;5104;50.720;7.044;2023-02-14T11:03:37;9.00;1.00
10129;DHT22;5104;50.720;7.044;2023-02-14T11:06:05;9.10;1.00
10129;DHT22;5104;50.720;7.044;2023-02-14T11:08:35;9.00;1.00
10129;DHT22;5104;50.720;7.044;2023-02-14T11:11:10;9.00;99.90
10129;DHT22;5104;50.720;7.044;2023-02-14T11:13:40;9.10;99.90
10129;DHT22;5104;50.720;7.044;2023-02-14T11:16:09;9.20;1.00
10129;DHT22;5104;50.720;7.044;2023-02-14T11:18:37;9.40;1.00
10129;DHT22;5104;50.720;7.044;2023-02-14T11:21:08;9.50;99.90
10129;DHT22;5104;50.720;7.044;2023-02-14T11:23:39;9.60;1.00
10129;DHT22;5104;50.720;7.044;2023-02-14T11:26:10;9.70;99.90
10129;DHT22;5104;50.720;7.044;2023-02-14T11:28:47;9.90;99.90
10129;DHT22;5104;50.720;7.044;2023-02-14T11:31:24;9.90;1.00
10129;DHT22;5104;50.720;7.044;2023-02-14T11:33:51;10.00;1.00
10129;DHT22;5104;50.720;7.044;2023-02-14T11:36:19;10.20;1.00
10129;DHT22;5104;50.720;7.044;2023-02-14T11:38:55;10.20;1.00
10129;DHT22;5104;50.720;7.044;2023-02-14T11:41:22;10.30;1.00
10129;DHT22;5104;50.720;7.044;2023-02-14T11:43:49;10.20;99.90
10129;DHT22;5104;50.720;7.044;2023-02-14T11:46:25;10.20;1.00
10129;DHT22;5104;50.720;7.044;2023-02-14T11:48:56;10.20;1.00
10129;DHT22;5104;50.720;7.044;2023-02-14T11:51:29;10.20;99.90
10129;DHT22;5104;50.720;7.044;2023-02-14T11:54:00;10.20;1.00
10129;DHT22;5104;50.720;7.044;2023-02-14T11:56:48;10.20;1.00
10129;DHT22;5104;50.720;7.044;2023-02-14T11:59:27;10.10;1.00
10129;DHT22;5104;50.720;7.044;2023-02-14T12:01:56;10.10;1.00
10129;DHT22;5104;50.720;7.044;2023-02-14T12:04:32;10.10;1.00
10129;DHT22;5104;50.720;7.044;2023-02-14T12:07:15;10.10;99.90
10129;DHT22;5104;50.720;7.044;2023-02-14T12:09:45;10.10;1.00
10129;DHT22;5104;50.720;7.044;2023-02-14T12:12:18;10.30;99.90
10129;DHT22;5104;50.720;7.044;2023-02-14T12:14:48;10.30;99.90
10129;DHT22;5104;50.720;7.044;2023-02-14T12:17:28;10.40;99.90
10129;DHT22;5104;50.720;7.044;2023-02-14T12:20:01;10.50;21.20
10129;DHT22;5104;50.720;7.044;2023-02-14T12:22:32;10.60;1.00
10129;DHT22;5104;50.720;7.044;2023-02-14T12:25:13;10.70;1.00
10129;DHT22;5104;50.720;7.044;2023-02-14T12:27:46;10.70;1.00
10129;DHT22;5104;50.720;7.044;2023-02-14T12:30:17;10.70;1.00
10129;DHT22;5104;50.720;7.044;2023-02-14T12:32:47;10.70;1.00
10129;DHT22;5104;50.720;7.044;2023-02-14T12:35:17;10.80;1.00
10129;DHT22;5104;50.720;7.044;2023-02-14T12:37:53;10.70;1.00
10129;DHT22;5104;50.720;7.044;2023-02-14T12:40:32;10.80;1.00
10129;DHT22;5104;50.720;7.044;2023-02-14T12:43:16;10.80;99.90
10129;DHT22;5104;50.720;7.044;2023-02-14T12:46:09;10.80;1.00
10129;DHT22;5104;50.720;7.044;2023-02-14T12:48:50;10.70;1.00
10129;DHT22;5104;50.720;7.044;2023-02-14T12:51:26;10.90;1.00
10129;DHT22;5104;50.720;7.044;2023-02-14T12:54:09;10.90;99.90
10129;DHT22;5104;50.720;7.044;2023-02-14T12:56:48;10.70;1.00
10129;DHT22;5104;50.720;7.044;2023-02-14T12:59:26;10.70;1.00
10129;DHT22;5104;50.720;7.044;2023-02-14T13:02:03;10.80;1.00
10129;DHT22;5104;50.720;7.044;2023-02-14T13:04:53;10.70;1.00
10129;DHT22;5104;50.720;7.044;2023-02-14T13:07:40;10.80;1.00
10129;DHT22;5104;50.720;7.044;2023-02-14T13:10:17;10.80;1.00
10129;DHT22;5104;50.720;7.044;2023-02-14T13:12:58;11.00;1.00
10129;DHT22;5104;50.720;7.044;2023-02-14T13:15:30;11.10;99.90
10129;DHT22;5104;50.720;7.044;2023-02-14T13:18:09;11.00;99.90
10129;DHT22;5104;50.720;7.044;2023-02-14T13:20:48;11.00;99.90
10129;DHT22;5104;50.720;7.044;2023-02-14T13:23:21;11.10;99.90
10129;DHT22;5104;50.720;7.044;2023-02-14T13:25:54;11.20;99.90
10129;DHT22;5104;50.720;7.044;2023-02-14T13:28:24;11.30;99.90
10129;DHT22;5104;50.720;7.044;2023-02-14T13:30:53;11.30;99.90
10129;DHT22;5104;50.720;7.044;2023-02-14T13:33:32;11.30;99.90
10129;DHT22;5104;50.720;7.044;2023-02-14T13:36:03;11.30;99.90
10129;DHT22;5104;50.720;7.044;2023-02-14T13:38:35;11.20;99.90
10129;DHT22;5104;50.720;7.044;2023-02-14T13:41:05;11.10;99.90
10129;DHT22;5104;50.720;7.044;2023-02-14T13:43:52;11.10;99.90
10129;DHT22;5104;50.720;7.044;2023-02-14T13:46:45;11.10;99.90
10129;DHT22;5104;50.720;7.044;2023-02-14T13:49:30;11.10;99.90
10129;DHT22;5104;50.720;7.044;2023-02-14T13:52:00;11.10;99.90
10129;DHT22;5104;50.720;7.044;2023-02-14T13:54:41;11.20;99.90
10129;DHT22;5104;50.720;7.044;2023-02-14T13:57:28;11.20;99.90
10129;DHT22;5104;50.720;7.044;2023-02-14T14:00:34;11.10;15.50
10129;DHT22;5104;50.720;7.044;2023-02-14T14:03:03;11.20;99.90
10129;DHT22;5104;50.720;7.044;2023-02-14T14:05:48;11.20;99.90
10129;DHT22;5104;50.720;7.044;2023-02-14T14:08:47;11.20;99.90
10129;DHT22;5104;50.720;7.044;2023-02-14T14:14:42;11.30;33.50
10129;DHT22;5104;50.720;7.044;2023-02-14T14:17:25;11.30;99.90
10129;DHT22;5104;50.720;7.044;2023-02-14T14:19:52;11.40;94.20
10129;DHT22;5104;50.720;7.044;2023-02-14T14:22:20;11.30;4.60
10129;DHT22;5104;50.720;7.044;2023-02-14T14:24:57;11.30;32.00
10129;DHT22;5104;50.720;7.044;2023-02-14T14:27:28;11.30;99.90
10129;DHT22;5104;50.720;7.044;2023-02-14T14:29:57;11.30;99.90
10129;DHT22;5104;50.720;7.044;2023-02-14T14:32:28;11.30;90.40
10129;DHT22;5104;50.720;7.044;2023-02-14T14:34:57;11.30;99.90
10129;DHT22;5104;50.720;7.044;2023-02-14T14:37:26;11.30;99.90
10129;DHT22;5104;50.720;7.044;2023-02-14T14:39:55;11.30;99.90
10129;DHT22;5104;50.720;7.044;2023-02-14T14:42:25;11.10;64.20
10129;DHT22;5104;50.720;7.044;2023-02-14T14:44:55;11.20;99.90
10129;DHT22;5104;50.720;7.044;2023-02-14T14:47:24;11.10;99.90
10129;DHT22;5104;50.720;7.044;2023-02-14T14:50:03;11.10;99.90
10129;DHT22;5104;50.720;7.044;2023-02-14T14:52:34;11.10;99.90
10129;DHT22;5104;50.720;7.044;2023-02-14T14:55:04;11.00;99.90
10129;DHT22;5104;50.720;7.044;2023-02-14T14:57:32;11.10;99.90
10129;DHT22;5104;50.720;7.044;2023-02-14T15:00:17;11.00;99.90
10129;DHT22;5104;50.720;7.044;2023-02-14T15:02:55;11.00;99.90
10129;DHT22;5104;50.720;7.044;2023-02-14T15:05:26;11.00;1.00
10129;DHT22;5104;50.720;7.044;2023-02-14T15:07:57;11.00;99.90
10129;DHT22;5104;50.720;7.044;2023-02-14T15:10:26;11.00;1.00
10129;DHT22;5104;50.720;7.044;2023-02-14T15:12:56;10.90;99.90
10129;DHT22;5104;50.720;7.044;2023-02-14T15:15:42;10.90;1.00
10129;DHT22;5104;50.720;7.044;2023-02-14T15:18:13;10.80;1.00
10129;DHT22;5104;50.720;7.044;2023-02-14T15:20:41;10.70;1.00
10129;DHT22;5104;50.720;7.044;2023-02-14T15:23:16;10.70;1.00
10129;DHT22;5104;50.720;7.044;2023-02-14T15:25:45;10.60;1.00
10129;DHT22;5104;50.720;7.044;2023-02-14T15:28:24;10.60;1.00
10129;DHT22;5104;50.720;7.044;2023-02-14T15:30:56;10.50;1.00
10129;DHT22;5104;50.720;7.044;2023-02-14T15:33:23;10.50;1.00
10129;DHT22;5104;50.720;7.044;2023-02-14T15:35:52;10.40;1.00
10129;DHT22;5104;50.720;7.044;2023-02-14T15:38:21;10.40;1.00
10129;DHT22;5104;50.720;7.044;2023-02-14T15:40:49;10.30;1.00
10129;DHT22;5104;50.720;7.044;2023-02-14T15:43:25;10.20;1.00
10129;DHT22;5104;50.720;7.044;2023-02-14T15:45:58;10.30;1.00
10129;DHT22;5104;50.720;7.044;2023-02-14T15:48:29;10.30;1.00
10129;DHT22;5104;50.720;7.044;2023-02-14T15:51:00;10.10;1.00
10129;DHT22;5104;50.720;7.044;2023-02-14T15:53:36;10.10;1.00
10129;DHT22;5104;50.720;7.044;2023-02-14T15:56:09;10.10;1.00
10129;DHT22;5104;50.720;7.044;2023-02-14T15:58:38;10.10;1.00
10129;DHT22;5104;50.720;7.044;2023-02-14T16:01:07;10.10;1.00
10129;DHT22;5104;50.720;7.044;2023-02-14T16:03:38;10.00;99.90
10129;DHT22;5104;50.720;7.044;2023-02-14T16:06:15;9.90;99.90
10129;DHT22;5104;50.720;7.044;2023-02-14T16:08:55;9.80;99.90
10129;DHT22;5104;50.720;7.044;2023-02-14T16:11:27;9.70;99.90
10129;DHT22;5104;50.720;7.044;2023-02-14T16:13:55;9.60;99.90
10129;DHT22;5104;50.720;7.044;2023-02-14T16:16:22;9.50;1.00
10129;DHT22;5104;50.720;7.044;2023-02-14T16:18:50;9.30;1.00
10129;DHT22;5104;50.720;7.044;2023-02-14T16:21:20;9.20;95.20
10129;DHT22;5104;50.720;7.044;2023-02-14T16:24:10;9.00;99.90
10129;DHT22;5104;50.720;7.044;2023-02-14T16:26:38;8.90;1.00
10129;DHT22;5104;50.720;7.044;2023-02-14T16:29:07;8.80;1.00
10129;DHT22;5104;50.720;7.044;2023-02-14T16:31:38;8.70;99.90
10129;DHT22;5104;50.720;7.044;2023-02-14T16:34:09;8.60;1.00
10129;DHT22;5104;50.720;7.044;2023-02-14T16:36:39;8.50;1.00
10129;DHT22;5104;50.720;7.044;2023-02-14T16:39:11;8.50;1.00
10129;DHT22;5104;50.720;7.044;2023-02-14T16:41:42;8.30;1.00
10129;DHT22;5104;50.720;7.044;2023-02-14T16:44:12;8.10;99.90
10129;DHT22;5104;50.720;7.044;2023-02-14T16:46:39;8.00;99.90
10129;DHT22;5104;50.720;7.044;2023-02-14T16:49:07;8.00;99.90